createdAt,value
2019-03-10T00:03:47.608Z,8.38
2019-03-10T00:09:42.615Z,6.97
2019-03-10T00:15:37.648Z,7.51
2019-03-10T00:21:32.628Z,6.54
2019-03-10T00:27:27.606Z,7.43
2019-03-10T00:33:22.644Z,5.8
2019-03-10T00:39:17.643Z,6.91
2019-03-10T00:45:12.643Z,7.13
2019-03-10T00:51:07.634Z,7.7
2019-03-10T00:57:02.654Z,7.12
2019-03-10T01:02:57.622Z,5.78
2019-03-10T01:08:52.676Z,4.32
2019-03-10T01:14:47.672Z,5.74
2019-03-10T01:20:42.655Z,9.28
2019-03-10T01:26:37.644Z,7.09
2019-03-10T01:32:32.649Z,4.27
2019-03-10T01:38:27.678Z,6.84
2019-03-10T01:44:22.675Z,5.78
2019-03-10T01:50:17.691Z,5.51
2019-03-10T01:56:12.688Z,6.9
2019-03-10T02:02:07.742Z,4.45
2019-03-10T02:08:02.720Z,4.69
2019-03-10T02:13:57.703Z,4.65
2019-03-10T02:19:52.690Z,3.69
2019-03-10T02:25:47.701Z,3.93
2019-03-10T02:31:42.684Z,5.9
2019-03-10T02:37:37.677Z,6.94
2019-03-10T02:43:32.702Z,6.61
2019-03-10T02:49:27.729Z,4.13
2019-03-10T02:55:22.747Z,5.26
2019-03-10T03:01:17.746Z,4.47
2019-03-10T03:07:12.685Z,5.85
2019-03-10T03:13:07.708Z,4.43
2019-03-10T03:19:02.765Z,4.19
2019-03-10T03:24:57.720Z,5.93
2019-03-10T03:30:52.734Z,4.17
2019-03-10T03:36:47.738Z,5.07
2019-03-10T03:42:42.753Z,4.59
2019-03-10T03:48:37.724Z,8.03
2019-03-10T03:54:32.733Z,6.79
2019-03-10T04:00:27.752Z,5.98
2019-03-10T04:06:22.747Z,6.43
2019-03-10T04:12:17.737Z,7.17
2019-03-10T04:18:12.731Z,4.34
2019-03-10T04:24:07.732Z,5.43
2019-03-10T04:30:02.759Z,6.63
2019-03-10T04:35:57.764Z,6.61
2019-03-10T04:41:52.749Z,6.17
2019-03-10T04:47:47.764Z,5.08
2019-03-10T04:53:42.753Z,4.59
2019-03-10T04:59:37.772Z,6.63
2019-03-10T05:05:32.755Z,4.77
2019-03-10T05:11:27.779Z,4.43
2019-03-10T05:17:22.779Z,5.84
2019-03-10T05:23:17.769Z,4.02
2019-03-10T05:29:12.794Z,4.31
2019-03-10T05:35:07.827Z,5.92
2019-03-10T05:41:02.785Z,4.93
2019-03-10T05:46:57.773Z,3.61
2019-03-10T05:52:52.797Z,6.73
2019-03-10T05:58:47.836Z,3.29
2019-03-10T06:04:42.801Z,6.56
2019-03-10T06:10:37.836Z,2.92
2019-03-10T06:16:32.820Z,6.25
2019-03-10T06:22:27.813Z,6.18
2019-03-10T06:28:22.799Z,5.12
2019-03-10T06:34:17.864Z,6.03
2019-03-10T06:40:12.823Z,6.12
2019-03-10T06:46:07.854Z,5.73
2019-03-10T06:52:02.830Z,6.73
2019-03-10T06:57:57.835Z,8.5
2019-03-10T07:03:52.865Z,8.07
2019-03-10T07:09:47.831Z,6.21
2019-03-10T07:15:42.839Z,4.82
2019-03-10T07:21:37.854Z,4.88
2019-03-10T07:27:32.870Z,5.95
2019-03-10T07:33:27.850Z,7.18
2019-03-10T07:39:22.849Z,6.91
2019-03-10T07:45:17.849Z,8.29
2019-03-10T07:51:12.859Z,5.78
2019-03-10T07:57:07.887Z,5.61
2019-03-10T08:03:02.856Z,6.66
2019-03-10T08:08:57.851Z,8.27
2019-03-10T08:14:52.869Z,5.98
2019-03-10T08:20:47.870Z,6.67
2019-03-10T08:26:42.872Z,8.09
2019-03-10T08:32:37.886Z,6.68
2019-03-10T08:38:32.884Z,6.97
2019-03-10T08:44:27.894Z,6.5
2019-03-10T08:50:22.903Z,10.14
2019-03-10T08:56:17.921Z,7.19
2019-03-10T09:02:12.902Z,8.27
2019-03-10T09:08:07.933Z,8.61
2019-03-10T09:14:02.898Z,7.93
2019-03-10T09:19:57.897Z,5.6
2019-03-10T09:25:52.917Z,5.46
2019-03-10T09:31:47.926Z,7.43
2019-03-10T09:37:42.922Z,7.84
2019-03-10T09:43:37.914Z,13.32
2019-03-10T09:49:32.916Z,8.15
2019-03-10T09:55:27.930Z,8.81
2019-03-10T10:01:22.905Z,7.8
2019-03-10T10:07:17.953Z,10.15
2019-03-10T10:13:12.953Z,10.08
2019-03-10T10:19:07.980Z,7.8
2019-03-10T10:25:02.970Z,7.57
2019-03-10T10:30:57.924Z,5.16
2019-03-10T10:36:52.933Z,4.44
2019-03-10T10:42:47.931Z,5.35
2019-03-10T10:48:42.937Z,5.63
2019-03-10T10:54:37.966Z,7.41
2019-03-10T11:00:32.964Z,6.23
2019-03-10T11:06:27.960Z,7.43
2019-03-10T11:12:22.958Z,6.27
2019-03-10T11:18:17.972Z,8.13
2019-03-10T11:24:12.977Z,6.9
2019-03-10T11:30:07.978Z,6.55
2019-03-10T11:36:02.974Z,12.35
2019-03-10T11:41:57.992Z,8.15
2019-03-10T11:47:52.991Z,9.68
2019-03-10T11:53:47.972Z,10
2019-03-10T11:59:43.031Z,16.27
2019-03-10T12:05:38.020Z,14.59
2019-03-10T12:11:33.018Z,6.88
2019-03-10T12:17:28.000Z,7.73
2019-03-10T12:23:23.015Z,14.78
2019-03-10T12:29:17.995Z,4.62
2019-03-10T12:35:12.980Z,3.08
2019-03-10T12:41:08.002Z,5.12
2019-03-10T12:47:03.042Z,16.55
2019-03-10T12:52:58.042Z,6.43
2019-03-10T12:58:53.060Z,7.69
2019-03-10T13:04:48.093Z,4.67
2019-03-10T13:10:43.029Z,5.71
2019-03-10T13:16:38.030Z,5.17
2019-03-10T13:22:33.033Z,9.02
2019-03-10T13:28:28.063Z,3.98
2019-03-10T13:34:23.105Z,6.03
2019-03-10T13:40:18.095Z,5.91
2019-03-10T13:46:13.039Z,8.15
2019-03-10T13:52:08.079Z,7.83
2019-03-10T13:58:03.067Z,7.57
2019-03-10T14:04:00.043Z,6.2
2019-03-10T14:09:53.070Z,6.07
2019-03-10T14:15:48.112Z,5.98
2019-03-10T14:21:43.064Z,5.15
2019-03-10T14:27:38.066Z,6.38
2019-03-10T14:33:33.093Z,5.68
2019-03-10T14:39:28.102Z,5.24
2019-03-10T14:45:23.080Z,5.11
2019-03-10T14:51:18.079Z,7.27
2019-03-10T14:57:13.080Z,6.72
2019-03-10T15:03:08.075Z,7.26
2019-03-10T15:09:03.069Z,8.49
2019-03-10T15:14:58.088Z,7.82
2019-03-10T15:20:53.085Z,8.17
2019-03-10T15:26:48.112Z,9.8
2019-03-10T15:32:43.125Z,8.3
2019-03-10T15:38:38.104Z,6.8
2019-03-10T15:44:33.101Z,8.03
2019-03-10T15:50:28.121Z,8.98
2019-03-10T15:56:23.135Z,8.16
2019-03-10T16:02:18.119Z,6.18
2019-03-10T16:08:13.130Z,8.08
2019-03-10T16:14:08.124Z,9.54
2019-03-10T16:20:03.129Z,12.43
2019-03-10T16:25:58.166Z,11.4
2019-03-10T16:31:53.139Z,12.7
2019-03-10T16:37:48.122Z,11.79
2019-03-10T16:43:43.183Z,10.93
2019-03-10T16:49:38.141Z,14.4
2019-03-10T16:55:33.167Z,16.45
2019-03-10T17:01:28.156Z,12.93
2019-03-10T17:07:23.144Z,14.33
2019-03-10T17:13:18.195Z,17.54
2019-03-10T17:19:13.155Z,21.33
2019-03-10T17:25:08.148Z,23.66
2019-03-10T17:31:03.163Z,84.62
2019-03-10T17:36:58.187Z,29.49
2019-03-10T17:42:53.160Z,24.37
2019-03-10T17:48:48.150Z,34.04
2019-03-10T17:54:43.163Z,48.43
2019-03-10T18:00:38.166Z,41.1
2019-03-10T18:06:33.182Z,18.72
2019-03-10T18:12:28.186Z,18.13
2019-03-10T18:18:23.195Z,15.87
2019-03-10T18:24:18.205Z,17.1
2019-03-10T18:30:13.200Z,22
2019-03-10T18:36:08.215Z,23.07
2019-03-10T18:42:03.219Z,20.88
2019-03-10T18:47:58.252Z,21.77
2019-03-10T18:53:53.210Z,20.94
2019-03-10T18:59:48.226Z,23.63
2019-03-10T19:05:43.224Z,25.17
2019-03-10T19:11:38.203Z,24.09
2019-03-10T19:17:33.226Z,26.75
2019-03-10T19:23:28.283Z,26.42
2019-03-10T19:29:23.223Z,23.36
2019-03-10T19:35:18.225Z,21.64
2019-03-10T19:41:13.215Z,21.8
2019-03-10T19:47:08.246Z,30
2019-03-10T19:53:03.290Z,23.55
2019-03-10T19:58:58.253Z,22.27
2019-03-10T20:04:53.233Z,23.15
2019-03-10T20:10:48.307Z,26.24
2019-03-10T20:16:43.285Z,29.76
2019-03-10T20:22:38.296Z,27.55
2019-03-10T20:28:33.249Z,28.75
2019-03-10T20:34:28.280Z,28.39
2019-03-10T20:40:23.315Z,28.1
2019-03-10T20:46:18.264Z,24.98
2019-03-10T20:52:13.299Z,25.99
2019-03-10T20:58:08.282Z,23.15
2019-03-10T21:04:03.269Z,24.74
2019-03-10T21:09:58.331Z,27.22
2019-03-10T21:15:53.352Z,25.1
2019-03-10T21:21:48.282Z,27
2019-03-10T21:27:43.315Z,26.1
2019-03-10T21:33:38.313Z,22.32
2019-03-10T21:39:34.708Z,15.43
2019-03-10T21:45:28.305Z,21.27
2019-03-10T21:51:23.300Z,23.2
2019-03-10T21:57:18.311Z,19.93
2019-03-10T22:03:13.330Z,19.15
2019-03-10T22:09:08.308Z,19.06
2019-03-10T22:15:03.355Z,20.55
2019-03-10T22:20:58.318Z,23.2
2019-03-10T22:26:53.346Z,18.43
2019-03-10T22:32:48.357Z,18.3
2019-03-10T22:38:43.357Z,17.99
2019-03-10T22:44:38.331Z,19.76
2019-03-10T22:50:33.387Z,21.25
2019-03-10T22:56:28.358Z,18
2019-03-10T23:02:23.380Z,19.5
2019-03-10T23:08:18.345Z,16.72
2019-03-10T23:14:13.345Z,16.5
2019-03-10T23:20:08.331Z,15.98
2019-03-10T23:26:03.359Z,15.82
2019-03-10T23:31:58.367Z,15.89
2019-03-10T23:37:53.357Z,15.53
2019-03-10T23:43:48.353Z,13.67
2019-03-10T23:49:43.362Z,12.82
2019-03-10T23:55:38.359Z,23.35
